Latest Coastal Weather Observations for Noarlunga

IDS60701

Issued at 3:41 pm CST Thursday 25 August 2016 (issued every 10 minutes, with the page automatically refreshed every 10 minutes)

About coastal observations | Map of coastal stations | Coastal observations for SA | Marine services | Other Formats
Station Details ID: 023885 Name: NOARLUNGA Lat: -35.16 Lon: 138.51 Height: 55.0 m
Data from the previous 72 hours. | See also: Recent months at Noarlunga
Date/Time
CST
Temp
°C
Wind Pressure Rain since
9am
mm
Weather Cloud Vis
km
Sea
Height
m
Swell
Dir  Spd
kts
Gust
kts
hPa Trend Height
m
Period
s
Dir
25/03:30pm 12.9 WSW 9 13 - - 0.0 - - - - - - -
25/03:00pm 13.8 WSW 8 11 - - 0.0 - - - - - - -
25/02:30pm 14.0 W 7 11 - - 0.0 - - - - - - -
25/02:00pm 13.8 WSW 7 12 - - 0.0 - - - - - - -
25/01:30pm 13.4 WSW 8 13 - - 0.0 - - - - - - -
25/01:00pm 13.1 W 7 12 - - 0.0 - - - - - - -
25/12:30pm 13.0 W 6 10 - - 0.0 - - - - - - -
25/12:00pm 13.1 W 5 8 - - 0.0 - - - - - - -
25/11:30am 12.9 W 6 9 - - 0.0 - - - - - - -
25/11:00am 12.7 WNW 5 7 - - 0.0 - - - - - - -
25/10:30am 12.7 SW 4 7 - - 0.0 - - - - - - -
25/10:00am 12.1 SSE 2 5 - - 0.0 - - - - - - -
25/09:30am 11.2 SE 3 4 - - 0.0 - - - - - - -
25/09:00am 10.6 E 2 3 - - 0.0 - - - - - - -
25/08:30am 9.1 E 2 3 - - 0.0 - - - - - - -
25/08:00am 7.4 E 2 3 - - 0.0 - - - - - - -
25/07:30am 5.7 ESE 3 5 - - 0.0 - - - - - - -
25/07:00am 4.2 ESE 4 5 - - 0.0 - - - - - - -
25/06:30am 4.4 E 2 3 - - 0.0 - - - - - - -
25/06:00am 4.4 ESE 3 4 - - 0.0 - - - - - - -
25/05:30am 5.0 ESE 5 6 - - 0.0 - - - - - - -
25/05:00am 5.5 E 5 6 - - 0.0 - - - - - - -
25/04:30am 5.9 E 5 6 - - 0.0 - - - - - - -
25/04:00am 6.2 E 4 5 - - 0.0 - - - - - - -
25/03:30am 6.3 CALM 0 0 - - 0.0 - - - - - - -
25/03:00am 6.8 ESE 2 4 - - 0.0 - - - - - - -
25/02:30am 7.4 ESE 5 8 - - 0.0 - - - - - - -
25/02:00am 8.3 ESE 6 10 - - 0.0 - - - - - - -
25/01:30am 8.4 E 8 11 - - 0.0 - - - - - - -
25/01:00am 8.4 E 10 13 - - 0.0 - - - - - - -
25/12:30am 8.4 E 9 11 - - 0.0 - - - - - - -
25/12:00am 8.8 ESE 8 13 - - 0.0 - - - - - - -
 
Date/Time
CST
Temp
°C
Wind Pressure Rain since
9am
mm
Weather Cloud Vis
km
Sea
Height
m
Swell
Dir  Spd
kts
Gust
kts
hPa Trend Height
m
Period
s
Dir
24/11:30pm 8.7 ESE 8 12 - - 0.0 - - - - - - -
24/11:00pm 8.6 ESE 8 11 - - 0.0 - - - - - - -
24/10:30pm 9.0 ESE 9 12 - - 0.0 - - - - - - -
24/10:00pm 9.2 ESE 10 13 - - 0.0 - - - - - - -
24/09:30pm 9.2 SE 10 13 - - 0.0 - - - - - - -
24/09:00pm 9.5 ESE 10 15 - - 0.0 - - - - - - -
24/08:30pm 9.3 ESE 10 13 - - 0.0 - - - - - - -
24/08:00pm 9.6 ESE 10 14 - - 0.0 - - - - - - -
24/07:30pm 9.9 ESE 10 15 - - 0.0 - - - - - - -
24/07:00pm 9.8 ESE 8 11 - - 0.0 - - - - - - -
24/06:30pm 9.9 ESE 7 9 - - 0.0 - - - - - - -
24/06:00pm 10.8 SE 8 11 - - 0.0 - - - - - - -
24/05:30pm 11.6 SE 9 12 - - 0.0 - - - - - - -
24/05:00pm 12.3 SSE 9 13 - - 0.0 - - - - - - -
24/04:30pm 13.6 SE 6 7 - - 0.0 - - - - - - -
24/04:00pm 14.1 SE 7 11 - - 0.0 - - - - - - -
24/03:30pm 14.2 ESE 8 12 - - 0.0 - - - - - - -
24/03:00pm 14.7 SE 5 7 - - 0.0 - - - - - - -
24/02:30pm 15.9 S 4 8 - - 0.0 - - - - - - -
24/02:00pm 15.7 WSW 5 9 - - 0.0 - - - - - - -
24/01:30pm 16.1 S 4 6 - - 0.0 - - - - - - -
24/01:00pm 15.1 SSE 5 7 - - 0.0 - - - - - - -
24/12:30pm 16.6 NNW 2 5 - - 0.0 - - - - - - -
24/12:00pm 15.9 ESE 5 7 - - 0.0 - - - - - - -
24/11:30am 15.5 SE 8 11 - - 0.0 - - - - - - -
24/11:00am 15.1 ESE 6 9 - - 0.0 - - - - - - -
24/10:30am 14.8 ESE 6 9 - - 0.0 - - - - - - -
24/10:00am 14.1 E 7 10 - - 0.0 - - - - - - -
24/09:30am 12.9 ENE 6 9 - - 0.0 - - - - - - -
24/09:00am 11.6 ENE 3 4 - - 0.0 - - - - - - -
24/08:30am 10.6 NE 1 3 - - 0.0 - - - - - - -
24/08:00am 10.5 NE 2 4 - - 0.0 - - - - - - -
24/07:30am 9.9 NE 5 8 - - 0.0 - - - - - - -
24/07:00am 8.3 WNW 2 2 - - 0.0 - - - - - - -
24/06:30am 8.4 CALM 0 0 - - 0.0 - - - - - - -
24/06:00am 8.5 CALM 0 0 - - 0.0 - - - - - - -
24/05:30am 8.8 WNW 2 4 - - 0.0 - - - - - - -
24/05:00am 8.8 ENE 2 3 - - 0.0 - - - - - - -
24/04:30am 9.4 ENE 6 9 - - 0.0 - - - - - - -
24/04:00am 9.4 ENE 5 9 - - 0.0 - - - - - - -
24/03:30am 9.5 E 5 9 - - 0.0 - - - - - - -
24/03:00am 9.7 E 6 11 - - 0.0 - - - - - - -
24/02:30am 9.6 E 6 11 - - 0.0 - - - - - - -
24/02:00am 9.8 E 6 10 - - 0.0 - - - - - - -
24/01:30am 10.1 E 8 13 - - 0.0 - - - - - - -
24/01:00am 10.3 E 8 14 - - 0.0 - - - - - - -
24/12:30am 10.2 E 8 12 - - 0.0 - - - - - - -
24/12:00am 10.0 E 8 11 - - 0.0 - - - - - - -
 
Date/Time
CST
Temp
°C
Wind Pressure Rain since
9am
mm
Weather Cloud Vis
km
Sea
Height
m
Swell
Dir  Spd
kts
Gust
kts
hPa Trend Height
m
Period
s
Dir
23/11:30pm 9.8 E 9 13 - - 0.0 - - - - - - -
23/11:00pm 9.8 E 10 14 - - 0.0 - - - - - - -
23/10:30pm 9.8 E 9 14 - - 0.0 - - - - - - -
23/10:00pm 9.8 ESE 11 15 - - 0.0 - - - - - - -
23/09:30pm 9.7 ESE 10 14 - - 0.0 - - - - - - -
23/09:00pm 9.8 ESE 9 13 - - 0.0 - - - - - - -
23/08:30pm 10.0 ESE 9 12 - - 0.0 - - - - - - -
23/08:00pm 10.0 ESE 9 12 - - 0.0 - - - - - - -
23/07:30pm 10.0 E 7 10 - - 0.0 - - - - - - -
23/07:00pm 10.4 SE 7 10 - - 0.0 - - - - - - -
23/06:30pm 10.9 SE 9 13 - - 0.0 - - - - - - -
23/06:00pm 11.3 ESE 6 9 - - 0.0 - - - - - - -
23/05:30pm 12.1 SE 7 10 - - 0.0 - - - - - - -
23/05:00pm 13.1 SSW 4 6 - - 0.0 - - - - - - -
23/04:30pm 13.4 SSW 5 8 - - 0.0 - - - - - - -
23/04:00pm 13.5 WSW 5 8 - - 0.0 - - - - - - -
23/03:30pm 13.7 W 5 7 - - 0.0 - - - - - - -
23/03:00pm 13.3 W 5 7 - - 0.0 - - - - - - -
23/02:30pm 13.4 W 5 7 - - 0.0 - - - - - - -
23/02:00pm 13.8 W 6 8 - - 0.0 - - - - - - -
23/01:30pm 13.6 WNW 5 8 - - 0.0 - - - - - - -
23/01:00pm 14.0 W 5 8 - - 0.0 - - - - - - -
23/12:30pm 13.0 W 6 10 - - 0.0 - - - - - - -
23/12:00pm 14.9 NW 4 8 - - 0.0 - - - - - - -
23/11:30am 14.3 NNE 4 5 - - 0.0 - - - - - - -
23/11:00am 13.9 NE 3 7 - - 0.0 - - - - - - -
23/10:30am 13.6 ESE 4 7 - - 0.0 - - - - - - -
23/10:00am 12.6 NE 6 9 - - 0.0 - - - - - - -
23/09:30am 11.6 NE 5 8 - - 0.0 - - - - - - -
23/09:00am 11.0 E 3 6 - - 0.2 - - - - - - -
23/08:30am 10.5 E 5 9 - - 0.2 - - - - - - -
23/08:00am 9.6 E 7 9 - - 0.2 - - - - - - -
23/07:30am 7.9 E 5 7 - - 0.2 - - - - - - -
23/07:00am 7.3 E 5 7 - - 0.2 - - - - - - -
23/06:30am 7.1 E 4 5 - - 0.2 - - - - - - -
23/06:00am 6.6 E 2 3 - - 0.2 Recent precip. - - - - - -
23/05:30am 7.0 CALM 0 1 - - 0.2 - - - - - - -
23/05:00am 7.5 E 1 1 - - 0.0 - - - - - - -
23/04:30am 8.4 E 2 3 - - 0.0 - - - - - - -
23/04:00am 8.2 ENE 3 5 - - 0.0 - - - - - - -
23/03:30am 8.3 ENE 5 8 - - 0.0 - - - - - - -
23/03:00am 8.3 ENE 5 7 - - 0.0 - - - - - - -
23/02:30am 8.3 ENE 2 5 - - 0.0 - - - - - - -
23/02:00am 8.4 E 5 7 - - 0.0 - - - - - - -
23/01:30am 8.7 E 5 7 - - 0.0 - - - - - - -
23/01:00am 8.8 E 6 7 - - 0.0 - - - - - - -
23/12:30am 8.9 E 6 8 - - 0.0 - - - - - - -
23/12:00am 8.8 E 7 9 - - 0.0 - - - - - - -
 
Date/Time
CST
Temp
°C
Wind Pressure Rain since
9am
mm
Weather Cloud Vis
km
Sea
Height
m
Swell
Dir  Spd
kts
Gust
kts
hPa Trend Height
m
Period
s
Dir
22/11:30pm 9.0 E 7 9 - - 0.0 - - - - - - -
22/11:00pm 9.1 E 7 10 - - 0.0 - - - - - - -
22/10:30pm 9.2 E 7 9 - - 0.0 - - - - - - -
22/10:00pm 9.2 E 6 8 - - 0.0 - - - - - - -
22/09:30pm 9.1 E 6 7 - - 0.0 - - - - - - -
22/09:00pm 9.2 E 5 7 - - 0.0 - - - - - - -
22/08:30pm 9.6 ESE 6 8 - - 0.0 - - - - - - -
22/08:00pm 9.6 ESE 5 7 - - 0.0 - - - - - - -
22/07:30pm 10.3 E 4 5 - - 0.0 - - - - - - -
22/07:00pm 10.7 SW 2 3 - - 0.0 - - - - - - -
22/06:30pm 11.0 SW 2 3 - - 0.0 - - - - - - -
22/06:00pm 11.9 SW 3 4 - - 0.0 - - - - - - -
22/05:30pm 13.0 WSW 4 6 - - 0.0 - - - - - - -
22/05:00pm 13.8 WSW 2 3 - - 0.0 - - - - - - -
22/04:30pm 13.7 SW 4 6 - - 0.0 - - - - - - -
22/04:00pm 14.0 WSW 5 8 - - 0.0 - - - - - - -

Other Formats:

Comma delimited format used in spreadsheet applications
http://www.bom.gov.au/fwo/IDS60701/IDS60701.94808.axf

JavaScript Object Notation format (JSON) in row-major order
http://www.bom.gov.au/fwo/IDS60701/IDS60701.94808.json